Time;durP1;ratioP1;P1;durP2;ratioP2;P2;SDS_P1;SDS_P2;PMS_P1;PMS_P2;Temp;Humidity;BMP_temperature;BMP_pressure;BME280_temperature;BME280_humidity;BME280_pressure;Samples;Min_cycle;Max_cycle;Signal;HPM_P1;HPM_P2
2021/07/04 00:02:13;;;;;;;3.90;3.50;;;15.50;99.90;15.20;96598.00;;;;5104014;28;20757;-63
2021/07/04 00:05:02;;;;;;;4.13;3.30;;;15.50;99.90;14.90;96604.00;;;;5107059;28;20485;-64
2021/07/04 00:07:51;;;;;;;4.47;4.07;;;15.40;99.90;15.20;96593.00;;;;5106282;28;20212;-63
2021/07/04 00:10:46;;;;;;;5.00;4.00;;;15.40;99.90;15.10;96594.00;;;;5100332;28;20282;-64
2021/07/04 00:13:36;;;;;;;4.50;3.90;;;15.40;99.90;15.20;96588.00;;;;5103767;28;20198;-63
2021/07/04 00:16:25;;;;;;;4.73;4.07;;;15.40;99.90;15.30;96596.00;;;;5105332;28;20738;-63
2021/07/04 00:19:15;;;;;;;5.50;4.03;;;15.50;99.90;15.20;96581.00;;;;5096049;28;20210;-63
2021/07/04 00:22:04;;;;;;;3.93;3.50;;;15.50;99.90;15.20;96592.00;;;;5105246;28;20226;-65
2021/07/04 00:24:53;;;;;;;4.43;3.97;;;15.50;99.90;15.00;96608.00;;;;5105810;28;20222;-64
2021/07/04 00:27:42;;;;;;;4.23;3.77;;;15.50;99.90;14.70;96609.00;;;;5105153;28;20211;-63
2021/07/04 00:30:32;;;;;;;6.50;4.13;;;15.40;99.90;14.70;96621.00;;;;5104253;28;20199;-63
2021/07/04 00:33:21;;;;;;;6.30;4.13;;;15.20;99.90;14.90;96618.00;;;;5104196;28;20228;-62
2021/07/04 00:36:11;;;;;;;4.80;4.30;;;15.20;99.90;14.80;96618.00;;;;5104909;28;20548;-63
2021/07/04 00:39:00;;;;;;;5.75;4.80;;;15.20;99.90;14.90;96617.00;;;;5105372;28;20388;-63
2021/07/04 00:41:49;;;;;;;4.07;3.60;;;15.20;99.90;15.10;96619.00;;;;5105685;28;20241;-61
2021/07/04 00:44:38;;;;;;;4.77;3.70;;;15.20;99.90;15.20;96610.00;;;;5105826;28;20222;-63
2021/07/04 00:47:27;;;;;;;5.13;4.10;;;16.50;99.90;15.20;96606.00;;;;5106110;28;20648;-62
2021/07/04 00:50:18;;;;;;;4.83;4.10;;;15.40;99.90;15.30;96614.00;;;;5102834;28;20217;-62
2021/07/04 00:53:09;;;;;;;8.63;4.13;;;15.40;99.90;15.40;96617.00;;;;5103405;28;20233;-63
2021/07/04 00:55:58;;;;;;;4.40;3.63;;;15.50;99.90;15.40;96609.00;;;;5106543;28;20587;-62
2021/07/04 00:58:47;;;;;;;4.30;3.90;;;15.50;99.90;15.40;96610.00;;;;5104807;28;20205;-63
2021/07/04 01:01:37;;;;;;;5.35;4.80;;;15.60;99.90;15.30;96607.00;;;;5101697;28;20391;-60
2021/07/04 01:04:27;;;;;;;6.53;4.10;;;15.60;99.90;15.20;96607.00;;;;5106476;28;20222;-63
2021/07/04 01:07:16;;;;;;;4.07;3.67;;;15.60;99.90;15.30;96604.00;;;;5104775;28;20209;-63
2021/07/04 01:10:10;;;;;;;5.27;3.87;;;15.60;99.90;15.30;96610.00;;;;5103531;28;20203;-61
2021/07/04 01:13:01;;;;;;;4.93;4.00;;;15.60;99.90;15.20;96596.00;;;;5097333;28;20218;-62
2021/07/04 01:15:51;;;;;;;3.77;3.40;;;15.60;99.90;15.40;96601.00;;;;5105974;28;20617;-63
2021/07/04 01:18:41;;;;;;;5.30;4.43;;;15.60;99.90;15.30;96611.00;;;;5105375;28;20202;-62
2021/07/04 01:21:32;;;;;;;3.80;3.50;;;15.20;99.90;15.10;96603.00;;;;5106153;28;20219;-64
2021/07/04 01:24:23;;;;;;;4.60;4.13;;;15.60;99.90;15.10;96604.00;;;;5104677;28;20225;-63
2021/07/04 01:27:12;;;;;;;5.87;4.37;;;15.50;99.90;15.00;96606.00;;;;5105196;28;20600;-62
2021/07/04 01:30:01;;;;;;;5.47;4.67;;;15.50;99.90;15.00;96597.00;;;;5109235;28;20213;-62
2021/07/04 01:32:51;;;;;;;4.57;4.13;;;15.40;99.90;14.90;96602.00;;;;5109801;28;20229;-63
2021/07/04 01:35:40;;;;;;;4.70;3.87;;;15.40;99.90;15.00;96598.00;;;;5110063;28;20450;-62
2021/07/04 01:38:29;;;;;;;3.90;3.60;;;15.30;99.90;15.20;96597.00;;;;5109009;28;20210;-62
2021/07/04 01:41:19;;;;;;;5.10;4.20;;;15.40;99.90;15.10;96601.00;;;;5108953;28;20253;-63
2021/07/04 01:44:08;;;;;;;4.40;4.00;;;15.40;99.90;15.20;96594.00;;;;5109043;28;20222;-63
2021/07/04 01:46:56;;;;;;;5.10;3.63;;;15.40;99.90;15.30;96601.00;;;;5108712;28;20207;-63
2021/07/04 01:49:45;;;;;;;6.63;4.77;;;15.50;99.90;15.40;96606.00;;;;5108452;28;20255;-62
2021/07/04 01:52:34;;;;;;;4.60;4.20;;;15.50;99.90;15.50;96606.00;;;;5110524;28;20238;-63
2021/07/04 01:55:24;;;;;;;6.67;4.07;;;15.60;99.90;15.30;96603.00;;;;5109220;28;20693;-63
2021/07/04 01:58:14;;;;;;;4.17;3.77;;;15.60;99.90;15.10;96611.00;;;;5109013;28;20210;-64
2021/07/04 02:01:04;;;;;;;5.50;4.90;;;15.60;99.90;15.20;96597.00;;;;5108066;28;20591;-62
2021/07/04 02:03:53;;;;;;;5.57;4.43;;;15.60;99.90;15.00;96597.00;;;;5109235;28;20594;-62
2021/07/04 02:06:42;;;;;;;5.95;4.55;;;15.50;99.90;15.10;96595.00;;;;5107346;28;20385;-62
2021/07/04 02:09:31;;;;;;;4.88;4.47;;;15.50;99.90;15.10;96601.00;;;;5107175;28;20384;-62
2021/07/04 02:12:21;;;;;;;4.20;3.80;;;15.50;99.90;15.00;96607.00;;;;5108254;28;20226;-63
2021/07/04 02:15:14;;;;;;;4.60;4.20;;;15.40;99.90;15.10;96605.00;;;;5107990;28;20206;-63
2021/07/04 02:18:06;;;;;;;4.93;4.03;;;15.40;99.90;15.10;96595.00;;;;5108992;28;20195;-64
2021/07/04 02:20:57;;;;;;;4.70;4.10;;;15.40;99.90;15.20;96595.00;;;;5096892;28;20211;-64
2021/07/04 02:23:46;;;;;;;4.67;4.07;;;15.40;99.90;15.30;96596.00;;;;5107420;28;20203;-62
2021/07/04 02:26:35;;;;;;;6.50;4.50;;;15.50;99.90;15.30;96600.00;;;;5107146;28;20202;-62
2021/07/04 02:29:24;;;;;;;3.60;3.30;;;15.50;99.90;15.20;96602.00;;;;5106214;28;20209;-63
2021/07/04 02:32:14;;;;;;;6.13;4.43;;;15.50;99.90;15.20;96595.00;;;;5095497;28;20222;-64
2021/07/04 02:35:04;;;;;;;5.13;4.63;;;15.50;99.90;15.30;96608.00;;;;5107142;28;20194;-64
2021/07/04 02:37:53;;;;;;;7.53;4.47;;;15.50;99.90;15.30;96611.00;;;;5106599;28;20214;-63
2021/07/04 02:40:44;;;;;;;4.57;4.10;;;15.50;99.90;15.30;96602.00;;;;5107172;28;20194;-63
2021/07/04 02:43:33;;;;;;;4.80;4.07;;;15.60;99.90;15.30;96603.00;;;;5106928;28;20206;-63
2021/07/04 02:46:21;;;;;;;4.83;4.33;;;15.60;99.90;15.40;96608.00;;;;5106639;28;20583;-63
2021/07/04 02:49:12;;;;;;;6.10;4.93;;;15.60;99.90;15.20;96610.00;;;;5107692;28;20491;-63
2021/07/04 02:52:01;;;;;;;5.23;3.73;;;15.60;99.90;15.10;96606.00;;;;5107243;28;20255;-66
2021/07/04 02:54:50;;;;;;;4.90;4.50;;;15.60;99.90;15.10;96607.00;;;;5106732;28;20680;-63
2021/07/04 02:57:38;;;;;;;4.90;4.40;;;15.50;99.90;15.00;96620.00;;;;5106498;28;20199;-61
2021/07/04 03:00:28;;;;;;;6.27;4.47;;;15.50;99.90;15.10;96616.00;;;;5106216;28;20207;-63
2021/07/04 03:03:17;;;;;;;4.23;3.83;;;15.40;99.90;15.20;96598.00;;;;5106974;28;20209;-61
2021/07/04 03:06:07;;;;;;;5.50;5.00;;;15.40;99.90;15.10;96605.00;;;;5106779;28;20234;-62
2021/07/04 03:08:56;;;;;;;5.50;4.77;;;15.50;99.90;14.90;96607.00;;;;5106080;28;20203;-62
2021/07/04 03:11:45;;;;;;;4.50;4.10;;;15.40;99.90;14.90;96605.00;;;;5092710;28;20227;-62
2021/07/04 03:14:34;;;;;;;5.07;4.60;;;15.40;99.90;14.80;96601.00;;;;5105812;28;20195;-63
2021/07/04 03:17:23;;;;;;;5.33;4.17;;;15.30;99.90;14.80;96595.00;;;;5106262;28;20206;-62
2021/07/04 03:20:14;;;;;;;6.87;5.43;;;15.20;99.90;14.80;96594.00;;;;5063840;28;1204838;-64
2021/07/04 03:23:05;;;;;;;4.70;4.20;;;15.20;99.90;14.70;96593.00;;;;5106604;28;20230;-62
2021/07/04 03:25:55;;;;;;;4.73;4.20;;;15.20;99.90;14.70;96602.00;;;;5108047;28;20230;-62
2021/07/04 03:28:44;;;;;;;6.17;5.57;;;15.10;99.90;14.70;96599.00;;;;5106577;28;20214;-62
2021/07/04 03:31:33;;;;;;;9.13;4.73;;;15.10;99.90;14.80;96611.00;;;;5106625;28;20222;-62
2021/07/04 03:34:22;;;;;;;4.27;3.87;;;15.10;99.90;14.90;96607.00;;;;5106350;28;20199;-61
2021/07/04 03:37:11;;;;;;;6.73;4.63;;;15.10;99.90;14.80;96612.00;;;;5106020;28;20198;-66
2021/07/04 03:40:01;;;;;;;4.83;4.37;;;15.20;99.90;15.00;96616.00;;;;5106238;28;20207;-60
2021/07/04 03:42:50;;;;;;;5.03;4.10;;;15.20;99.90;15.10;96620.00;;;;5105987;28;20778;-62
2021/07/04 03:45:39;;;;;;;4.90;4.40;;;15.20;99.90;15.10;96621.00;;;;5106801;28;20620;-64
2021/07/04 03:48:28;;;;;;;5.00;4.50;;;15.30;99.90;15.10;96618.00;;;;5106625;28;20229;-63
2021/07/04 03:51:17;;;;;;;6.03;4.33;;;15.30;99.90;15.20;96618.00;;;;5105482;28;20222;-65
2021/07/04 03:54:06;;;;;;;6.03;5.07;;;15.40;99.90;15.30;96625.00;;;;5104223;28;20203;-64
2021/07/04 03:56:56;;;;;;;7.03;4.90;;;15.40;99.90;15.50;96630.00;;;;5101136;28;20194;-63
2021/07/04 03:59:45;;;;;;;4.87;4.20;;;15.50;99.90;15.40;96632.00;;;;5093686;28;20681;-63
2021/07/04 04:02:34;;;;;;;4.87;4.37;;;15.60;99.90;15.40;96628.00;;;;5106046;28;20226;-64
2021/07/04 04:05:23;;;;;;;4.97;4.43;;;15.60;99.90;15.40;96626.00;;;;5105708;28;20591;-61
2021/07/04 04:08:12;;;;;;;4.37;3.97;;;15.60;99.90;15.50;96621.00;;;;5107305;28;20207;-61
2021/07/04 04:11:01;;;;;;;4.50;4.10;;;15.60;99.90;15.50;96625.00;;;;5106356;28;20857;-63
2021/07/04 04:13:51;;;;;;;4.40;4.00;;;15.70;99.90;15.70;96613.00;;;;5106693;28;20211;-63
2021/07/04 04:16:40;;;;;;;4.70;4.30;;;15.70;99.90;15.70;96617.00;;;;5105716;28;20191;-63
2021/07/04 04:19:30;;;;;;;5.37;4.30;;;15.80;99.90;15.60;96617.00;;;;5105121;28;20228;-64
2021/07/04 04:22:19;;;;;;;4.87;4.17;;;15.80;99.90;15.30;96620.00;;;;5105849;28;20563;-62
2021/07/04 04:25:10;;;;;;;5.47;4.50;;;15.80;99.90;15.30;96622.00;;;;5105731;28;20222;-63
2021/07/04 04:28:03;;;;;;;5.43;3.77;;;15.80;99.90;15.40;96614.00;;;;5105248;28;20585;-62
2021/07/04 04:30:55;;;;;;;10.37;5.40;;;15.80;99.90;15.40;96621.00;;;;5105583;28;20198;-63
2021/07/04 04:33:43;;;;;;;5.67;4.03;;;15.80;99.90;15.40;96625.00;;;;5105487;28;20206;-64
2021/07/04 04:36:32;;;;;;;4.20;3.80;;;15.70;99.90;15.30;96629.00;;;;5106778;28;20214;-63
2021/07/04 04:39:21;;;;;;;5.17;4.27;;;15.70;99.90;15.30;96625.00;;;;5105842;28;20199;-64
2021/07/04 04:42:10;;;;;;;5.80;4.87;;;15.70;99.90;15.40;96624.00;;;;5106029;28;20241;-61
2021/07/04 04:44:59;;;;;;;5.60;5.17;;;15.70;99.90;15.30;96612.00;;;;5104652;28;20202;-62
2021/07/04 04:47:50;;;;;;;6.93;4.87;;;15.70;99.90;15.40;96613.00;;;;5104392;28;20723;-63
2021/07/04 04:50:38;;;;;;;4.90;4.40;;;15.70;99.90;15.50;96620.00;;;;5105375;28;20202;-62
2021/07/04 04:53:27;;;;;;;6.93;4.70;;;15.70;99.90;15.60;96622.00;;;;5095234;28;20213;-63
2021/07/04 04:56:16;;;;;;;7.30;4.33;;;15.70;99.90;15.50;96623.00;;;;5102394;28;20187;-59
2021/07/04 04:59:05;;;;;;;4.57;4.13;;;15.80;99.90;15.50;96623.00;;;;5102584;28;20199;-63
2021/07/04 05:01:54;;;;;;;4.73;4.33;;;15.80;99.90;15.60;96628.00;;;;5105932;28;20229;-61
2021/07/04 05:04:44;;;;;;;7.33;4.30;;;15.80;99.90;15.60;96633.00;;;;5094799;28;20207;-62
2021/07/04 05:07:33;;;;;;;4.50;3.80;;;15.90;99.90;15.70;96629.00;;;;5106585;28;20717;-63
2021/07/04 05:10:22;;;;;;;6.43;4.37;;;15.90;99.90;15.80;96637.00;;;;5101019;28;20195;-63
2021/07/04 05:13:11;;;;;;;5.23;4.53;;;16.00;99.90;15.90;96630.00;;;;5098805;28;20222;-61
2021/07/04 05:16:00;;;;;;;5.97;5.07;;;16.00;99.90;16.10;96627.00;;;;5105740;28;20580;-63
2021/07/04 05:18:48;;;;;;;5.87;4.57;;;16.10;99.90;16.00;96632.00;;;;5105316;28;20217;-61
2021/07/04 05:21:40;;;;;;;5.07;4.20;;;16.20;99.90;16.10;96635.00;;;;5104839;28;20222;-62
2021/07/04 05:24:29;;;;;;;5.17;4.37;;;16.20;99.90;16.00;96633.00;;;;5104346;28;20209;-62
2021/07/04 05:27:17;;;;;;;4.63;4.20;;;16.30;99.90;15.90;96633.00;;;;5094414;28;20226;-63
2021/07/04 05:30:09;;;;;;;4.87;4.30;;;16.30;99.90;16.00;96629.00;;;;5105072;28;20596;-64
2021/07/04 05:32:57;;;;;;;4.23;3.83;;;16.30;99.90;16.00;96637.00;;;;5105669;28;20222;-63
2021/07/04 05:35:47;;;;;;;4.80;4.40;;;16.30;99.90;16.00;96637.00;;;;5105210;28;20199;-61
2021/07/04 05:38:40;;;;;;;5.40;4.87;;;16.30;99.90;16.00;96636.00;;;;5094325;28;20210;-63
2021/07/04 05:41:29;;;;;;;4.80;4.30;;;16.30;99.90;16.10;96631.00;;;;5105281;28;20230;-64
2021/07/04 05:44:17;;;;;;;5.23;4.73;;;16.30;99.90;16.30;96636.00;;;;5105382;28;20207;-65
2021/07/04 05:47:07;;;;;;;5.40;4.90;;;16.40;99.90;16.20;96652.00;;;;5105291;28;20721;-62
2021/07/04 05:49:56;;;;;;;5.17;4.63;;;16.50;99.90;16.40;96643.00;;;;5105047;28;20213;-62
2021/07/04 05:52:46;;;;;;;5.53;5.03;;;16.50;99.90;16.40;96644.00;;;;5106333;28;20230;-63
2021/07/04 05:55:36;;;;;;;5.40;4.90;;;16.60;99.90;16.40;96641.00;;;;5105059;28;20556;-63
2021/07/04 05:58:25;;;;;;;5.17;4.17;;;16.60;99.90;16.40;96639.00;;;;5105166;28;20206;-63
2021/07/04 06:01:14;;;;;;;5.27;4.17;;;16.70;99.90;16.50;96644.00;;;;5105332;28;20222;-64
2021/07/04 06:04:04;;;;;;;5.57;4.03;;;16.70;99.90;16.50;96645.00;;;;5106493;28;20202;-63
2021/07/04 06:06:53;;;;;;;4.33;3.93;;;16.70;99.90;16.50;96642.00;;;;5105673;28;20222;-63
2021/07/04 06:09:42;;;;;;;4.97;4.50;;;16.80;99.90;16.60;96648.00;;;;5104053;28;20214;-64
2021/07/04 06:12:32;;;;;;;4.87;4.37;;;16.80;99.90;16.60;96646.00;;;;5092777;28;20233;-62
2021/07/04 06:15:21;;;;;;;5.07;4.67;;;16.80;99.90;16.60;96645.00;;;;5108629;28;20211;-62
2021/07/04 06:18:10;;;;;;;5.70;4.40;;;16.90;99.90;16.60;96648.00;;;;5108495;28;20210;-63
2021/07/04 06:20:58;;;;;;;5.27;4.60;;;16.90;99.90;16.70;96650.00;;;;5108525;28;20744;-65
2021/07/04 06:23:47;;;;;;;7.57;5.47;;;16.90;99.90;16.70;96650.00;;;;5108776;28;20206;-64
2021/07/04 06:26:37;;;;;;;5.13;4.63;;;16.90;99.90;16.60;96649.00;;;;5108051;28;20230;-65
2021/07/04 06:29:27;;;;;;;5.87;4.57;;;16.90;99.90;16.70;96650.00;;;;5107983;28;20222;-63
2021/07/04 06:32:16;;;;;;;5.20;4.70;;;16.90;99.90;16.80;96648.00;;;;5108682;28;20219;-64
2021/07/04 06:35:07;;;;;;;5.67;4.60;;;16.90;99.90;16.90;96651.00;;;;5107018;28;20215;-63
2021/07/04 06:37:56;;;;;;;6.87;4.80;;;17.00;99.90;17.00;96647.00;;;;5107448;28;20190;-61
2021/07/04 06:40:45;;;;;;;5.90;5.10;;;17.10;99.90;17.00;96644.00;;;;5106684;28;20210;-63
2021/07/04 06:43:34;;;;;;;5.27;4.77;;;17.10;99.90;17.00;96646.00;;;;5097731;28;20211;-63
2021/07/04 06:46:24;;;;;;;5.10;4.30;;;17.10;99.90;17.00;96652.00;;;;5107516;28;20253;-63
2021/07/04 06:49:13;;;;;;;5.90;4.60;;;17.20;99.90;16.90;96657.00;;;;5107939;28;20203;-63
2021/07/04 06:52:02;;;;;;;5.40;4.90;;;17.20;99.90;16.80;96646.00;;;;5106642;28;20234;-61
2021/07/04 06:54:51;;;;;;;4.97;4.47;;;17.20;99.90;16.80;96656.00;;;;5107154;28;20218;-63
2021/07/04 06:57:40;;;;;;;4.80;4.40;;;17.20;99.90;17.00;96643.00;;;;5106485;28;20207;-63
2021/07/04 07:00:29;;;;;;;6.83;5.57;;;17.20;99.90;17.20;96645.00;;;;5103001;28;20218;-63
2021/07/04 07:03:19;;;;;;;4.90;4.40;;;17.20;99.90;17.40;96648.00;;;;5106773;28;20579;-61
2021/07/04 07:06:08;;;;;;;5.47;4.57;;;17.30;99.90;17.60;96644.00;;;;5107226;28;20280;-61
2021/07/04 07:08:57;;;;;;;6.50;5.03;;;17.50;99.90;17.70;96647.00;;;;5106999;28;20214;-63
2021/07/04 07:11:46;;;;;;;5.77;4.83;;;17.60;99.90;17.80;96643.00;;;;5092627;28;20249;-63
2021/07/04 07:14:35;;;;;;;11.93;5.33;;;17.70;99.90;17.80;96630.00;;;;5107196;28;20203;-63
2021/07/04 07:17:25;;;;;;;5.40;4.90;;;17.80;99.90;17.90;96636.00;;;;5106658;28;20207;-63
2021/07/04 07:20:16;;;;;;;6.20;5.20;;;17.90;99.90;17.80;96641.00;;;;5103145;28;20704;-63
2021/07/04 07:23:05;;;;;;;6.70;6.03;;;18.00;99.90;18.00;96642.00;;;;5107816;28;20225;-61
2021/07/04 07:25:55;;;;;;;5.67;5.13;;;18.10;99.90;18.20;96643.00;;;;5106376;28;20205;-64
2021/07/04 07:28:45;;;;;;;6.37;5.77;;;18.10;99.90;18.40;96637.00;;;;5106464;28;20209;-60
2021/07/04 07:31:36;;;;;;;6.77;5.20;;;18.30;99.90;18.50;96638.00;;;;5106935;28;20222;-59
2021/07/04 07:34:25;;;;;;;5.87;5.03;;;18.40;99.90;18.70;96630.00;;;;5101377;28;20477;-61
2021/07/04 07:37:16;;;;;;;6.10;5.37;;;18.60;99.90;19.00;96629.00;;;;5104121;28;20221;-64
2021/07/04 07:40:07;;;;;;;5.97;5.37;;;18.70;99.90;19.10;96628.00;;;;5104071;28;20214;-62
2021/07/04 07:42:56;;;;;;;7.33;4.93;;;18.90;99.90;19.10;96620.00;;;;5078668;28;20659;-63
2021/07/04 07:45:46;;;;;;;7.53;5.80;;;19.10;99.90;19.30;96619.00;;;;5074142;28;20214;-60
2021/07/04 07:48:35;;;;;;;10.63;6.27;;;19.20;99.90;19.20;96616.00;;;;5086013;28;20230;-63
2021/07/04 07:51:24;;;;;;;5.30;4.77;;;19.30;99.90;19.70;96611.00;;;;5086353;28;20230;-63
2021/07/04 07:54:14;;;;;;;4.77;4.33;;;19.40;99.90;20.00;96618.00;;;;5087672;28;20207;-63
2021/07/04 07:57:04;;;;;;;8.13;5.23;;;19.60;99.90;20.20;96610.00;;;;5086360;28;20661;-63
2021/07/04 07:59:53;;;;;;;6.10;5.30;;;19.90;99.90;20.40;96612.00;;;;5089811;28;20207;-63
2021/07/04 08:02:42;;;;;;;6.77;6.07;;;20.10;99.90;20.50;96612.00;;;;5100914;28;20223;-61
2021/07/04 08:05:31;;;;;;;8.40;5.17;;;20.20;99.90;20.70;96613.00;;;;5105284;28;20202;-62
2021/07/04 08:08:20;;;;;;;6.10;5.53;;;20.40;99.90;20.90;96616.00;;;;5105252;28;20230;-63
2021/07/04 08:11:10;;;;;;;8.17;6.23;;;20.50;99.90;21.10;96615.00;;;;5105318;28;20573;-62
2021/07/04 08:13:59;;;;;;;7.80;5.63;;;20.80;99.90;21.40;96612.00;;;;5105551;28;20206;-62
2021/07/04 08:16:48;;;;;;;5.30;4.80;;;21.00;99.90;21.80;96612.00;;;;5101279;28;20198;-64
2021/07/04 08:19:38;;;;;;;6.73;5.53;;;21.20;99.90;21.80;96599.00;;;;5097954;28;20283;-63
2021/07/04 08:22:27;;;;;;;7.77;5.50;;;21.40;99.90;22.40;96594.00;;;;5095769;28;20222;-64
2021/07/04 08:25:17;;;;;;;9.70;5.87;;;21.70;99.90;22.40;96589.00;;;;5105670;28;20206;-64
2021/07/04 08:28:08;;;;;;;9.27;6.37;;;22.00;99.90;22.60;96589.00;;;;5092110;28;20226;-64
2021/07/04 08:30:57;;;;;;;7.60;5.03;;;22.10;99.90;22.80;96593.00;;;;5104995;28;20206;-61
2021/07/04 08:33:45;;;;;;;5.20;4.37;;;22.30;99.90;22.80;96596.00;;;;5105398;28;20701;-63
2021/07/04 08:36:34;;;;;;;7.17;5.17;;;22.50;99.90;22.70;96605.00;;;;5103886;28;20199;-64
2021/07/04 08:39:23;;;;;;;5.57;4.37;;;22.50;99.90;22.60;96604.00;;;;5104118;28;20258;-62
2021/07/04 08:42:12;;;;;;;6.87;5.17;;;22.50;99.90;22.40;96607.00;;;;5104238;28;20245;-61
2021/07/04 08:45:03;;;;;;;5.90;4.47;;;22.60;99.90;22.20;96603.00;;;;5104126;28;20199;-63
2021/07/04 08:47:52;;;;;;;5.90;4.50;;;22.50;99.90;22.10;96606.00;;;;5100883;28;20226;-63
2021/07/04 08:50:41;;;;;;;5.80;5.00;;;22.40;99.90;21.80;96615.00;;;;5098520;28;20662;-62
2021/07/04 08:53:31;;;;;;;5.40;4.83;;;22.20;99.90;21.80;96607.00;;;;5096066;28;20851;-62
2021/07/04 08:56:20;;;;;;;5.50;4.77;;;22.10;99.90;21.90;96602.00;;;;5104972;28;20627;-61
2021/07/04 08:59:09;;;;;;;6.93;5.07;;;22.00;99.90;21.90;96608.00;;;;5104254;28;20202;-62
2021/07/04 09:02:00;;;;;;;5.97;5.03;;;21.90;99.90;21.90;96598.00;;;;5104991;28;20219;-63
2021/07/04 09:05:01;;;;;;;5.53;4.57;;;21.90;99.90;22.10;96598.00;;;;5104530;28;20684;-64
2021/07/04 09:07:50;;;;;;;10.10;5.30;;;22.00;99.90;22.20;96596.00;;;;5104595;28;20268;-62
2021/07/04 09:10:39;;;;;;;9.50;5.03;;;22.10;99.90;22.40;96596.00;;;;5098829;28;20204;-64
2021/07/04 09:13:28;;;;;;;24.00;6.07;;;22.20;99.90;22.60;96590.00;;;;5099654;28;20688;-63
2021/07/04 09:16:21;;;;;;;10.90;5.60;;;22.30;99.90;22.80;96592.00;;;;5103163;28;20213;-64
2021/07/04 09:19:14;;;;;;;10.13;5.10;;;22.50;99.90;23.20;96585.00;;;;5102738;28;20199;-62
2021/07/04 09:22:06;;;;;;;11.37;5.87;;;22.70;99.90;23.50;96580.00;;;;5100946;28;20233;-63
2021/07/04 09:24:54;;;;;;;13.57;5.23;;;22.90;99.90;23.80;96579.00;;;;5105038;28;20198;-60
2021/07/04 09:28:00;;;;;;;7.03;4.80;;;23.20;99.90;23.90;96575.00;;;;5105239;28;20226;-63
2021/07/04 09:30:55;;;;;;;7.40;4.40;;;23.50;99.90;24.10;96574.00;;;;5094288;28;20209;-64
2021/07/04 09:33:44;;;;;;;4.33;3.73;;;23.60;99.90;23.80;96579.00;;;;5105056;28;20202;-64
2021/07/04 09:36:35;;;;;;;6.93;3.80;;;23.70;97.20;23.90;96580.00;;;;5102796;28;20198;-62
2021/07/04 09:39:24;;;;;;;4.40;3.97;;;23.70;96.30;23.70;96589.00;;;;5104494;28;21011;-62
2021/07/04 09:42:13;;;;;;;8.03;4.70;;;23.70;94.30;23.50;96580.00;;;;5079498;28;20226;-63
2021/07/04 09:45:02;;;;;;;7.47;4.80;;;23.60;92.70;23.40;96589.00;;;;5085491;28;20954;-61
2021/07/04 09:47:53;;;;;;;6.33;4.03;;;23.50;92.30;23.20;96597.00;;;;5092551;28;20360;-63
2021/07/04 09:50:45;;;;;;;8.93;4.57;;;23.40;92.40;23.00;96595.00;;;;5099419;28;20209;-62
2021/07/04 09:53:38;;;;;;;4.37;3.47;;;23.20;91.30;22.80;96595.00;;;;5102201;28;20214;-63
2021/07/04 09:56:30;;;;;;;4.87;3.30;;;23.00;92.00;22.80;96591.00;;;;5099606;28;20211;-62
2021/07/04 09:59:23;;;;;;;6.57;4.23;;;22.90;92.10;22.80;96592.00;;;;5099247;28;20211;-62
2021/07/04 10:02:15;;;;;;;4.37;3.63;;;22.80;92.30;22.80;96587.00;;;;5101382;28;20230;-62
2021/07/04 10:05:14;;;;;;;3.53;3.23;;;22.80;92.10;22.30;96595.00;;;;5096668;28;20203;-63
2021/07/04 10:08:21;;;;;;;4.50;3.40;;;22.70;91.10;22.10;96586.00;;;;5084088;28;20238;-61
2021/07/04 10:11:14;;;;;;;5.33;3.60;;;22.50;89.30;22.40;96589.00;;;;5098664;28;20202;-63
2021/07/04 10:14:03;;;;;;;6.27;3.57;;;22.40;90.50;22.50;96588.00;;;;5101467;28;20214;-62
2021/07/04 10:16:53;;;;;;;5.23;3.73;;;22.40;91.20;22.40;96583.00;;;;5099062;28;20210;-63
2021/07/04 10:19:44;;;;;;;5.00;4.27;;;22.40;91.10;22.50;96575.00;;;;5098148;28;20631;-64
2021/07/04 10:22:37;;;;;;;5.10;3.60;;;22.40;91.50;22.60;96575.00;;;;5099759;28;20218;-62
2021/07/04 10:25:26;;;;;;;7.17;4.57;;;22.50;91.80;22.70;96568.00;;;;5098753;28;20206;-61
2021/07/04 10:28:20;;;;;;;7.30;4.43;;;22.50;92.00;22.80;96562.00;;;;5097650;28;20226;-63
2021/07/04 10:31:13;;;;;;;7.73;4.40;;;22.60;92.30;22.40;96562.00;;;;5098936;28;20211;-63
2021/07/04 10:34:08;;;;;;;9.07;4.40;;;22.60;91.20;22.50;96557.00;;;;5098346;28;20209;-64
2021/07/04 10:36:59;;;;;;;8.00;4.10;;;22.60;91.40;22.40;96554.00;;;;5100734;28;20210;-62
2021/07/04 10:40:14;;;;;;;9.83;3.87;;;22.60;91.20;22.60;96547.00;;;;5102455;28;20306;-61
2021/07/04 10:43:03;;;;;;;7.23;4.20;;;22.60;91.80;22.80;96551.00;;;;5096710;28;20230;-62
2021/07/04 10:45:54;;;;;;;9.10;4.10;;;22.70;90.90;23.00;96545.00;;;;5100009;28;20207;-63
2021/07/04 10:48:54;;;;;;;10.90;3.60;;;22.80;90.90;23.30;96545.00;;;;5100768;28;20937;-61
2021/07/04 10:51:57;;;;;;;4.67;3.77;;;23.00;90.70;23.50;96541.00;;;;5091405;28;22057;-61
2021/07/04 10:54:57;;;;;;;5.20;3.70;;;23.20;90.70;23.80;96541.00;;;;5095972;28;20202;-61
2021/07/04 10:58:05;;;;;;;7.83;4.33;;;23.40;90.60;23.80;96539.00;;;;5091929;28;20202;-61
2021/07/04 11:00:55;;;;;;;7.27;4.13;;;23.50;89.90;24.00;96544.00;;;;5096157;28;20207;-63
2021/07/04 11:03:44;;;;;;;4.83;3.77;;;23.60;89.40;24.10;96536.00;;;;5094804;28;20202;-63
2021/07/04 11:06:54;;;;;;;6.33;3.80;;;23.80;88.80;24.10;96520.00;;;;5094263;28;20210;-63
2021/07/04 11:10:19;;;;;;;4.33;3.93;;;23.90;85.50;24.10;96516.00;;;;5101979;28;20595;-63
2021/07/04 11:13:43;;;;;;;4.97;4.10;;;24.00;81.80;23.90;96519.00;;;;5103143;28;20223;-63
2021/07/04 11:16:33;;;;;;;5.43;3.97;;;23.90;82.00;23.40;96522.00;;;;5095975;28;20809;-62
2021/07/04 11:19:22;;;;;;;4.10;3.60;;;23.90;80.30;22.30;96520.00;;;;5100353;28;20712;-62
2021/07/04 11:22:11;;;;;;;5.03;4.47;;;23.50;80.30;22.70;96521.00;;;;5094159;28;20230;-62
2021/07/04 11:25:17;;;;;;;4.70;3.70;;;23.30;80.50;22.90;96532.00;;;;5098830;28;20888;-63
2021/07/04 11:28:23;;;;;;;4.50;3.97;;;23.20;82.80;23.10;96527.00;;;;5101492;28;20267;-63
2021/07/04 11:31:30;;;;;;;4.13;3.73;;;23.10;84.20;23.20;96527.00;;;;5101378;28;20199;-62
2021/07/04 11:34:22;;;;;;;5.40;4.40;;;23.10;84.70;23.30;96531.00;;;;5104890;28;20198;-62
2021/07/04 11:37:11;;;;;;;4.63;4.17;;;23.20;86.00;23.40;96537.00;;;;5102980;28;20210;-60
2021/07/04 11:40:00;;;;;;;4.80;4.20;;;23.30;87.30;23.30;96543.00;;;;5100987;28;20209;-61
2021/07/04 11:42:49;;;;;;;4.70;3.90;;;23.30;88.60;23.10;96539.00;;;;5098910;28;20219;-63
2021/07/04 11:45:38;;;;;;;3.90;3.50;;;23.30;88.90;23.20;96543.00;;;;5100736;28;20210;-63
2021/07/04 11:48:50;;;;;;;8.33;4.00;;;23.20;88.70;23.10;96534.00;;;;5102662;28;20206;-62
2021/07/04 11:51:48;;;;;;;5.70;4.17;;;23.20;87.90;23.40;96538.00;;;;5103132;28;20210;-65
2021/07/04 11:54:37;;;;;;;4.50;4.10;;;23.20;87.70;23.50;96533.00;;;;5100126;28;20206;-64
2021/07/04 11:57:31;;;;;;;6.57;3.53;;;23.30;88.10;23.60;96529.00;;;;5100070;28;20207;-63
2021/07/04 12:00:20;;;;;;;4.20;3.80;;;23.40;86.70;23.60;96521.00;;;;5097234;28;20202;-65
2021/07/04 12:03:09;;;;;;;4.93;3.93;;;23.40;86.80;23.80;96527.00;;;;5099065;28;20221;-63
2021/07/04 12:06:07;;;;;;;6.83;3.90;;;23.50;86.80;23.60;96531.00;;;;5097650;28;20587;-64
2021/07/04 12:09:03;;;;;;;4.40;4.00;;;23.50;86.00;23.70;96523.00;;;;5097649;28;20846;-60
2021/07/04 12:11:53;;;;;;;5.63;4.13;;;23.60;86.20;23.70;96529.00;;;;5095811;28;20230;-62
2021/07/04 12:14:43;;;;;;;7.50;3.63;;;23.60;86.00;23.70;96514.00;;;;5102636;28;20626;-63
2021/07/04 12:17:36;;;;;;;4.77;3.93;;;23.60;85.60;23.80;96508.00;;;;5097350;28;20202;-63
2021/07/04 12:20:28;;;;;;;5.13;4.53;;;23.70;85.80;23.80;96521.00;;;;5102968;28;20203;-61
2021/07/04 12:23:17;;;;;;;4.00;3.60;;;23.70;85.40;23.80;96503.00;;;;5096424;28;20214;-61
2021/07/04 12:26:09;;;;;;;5.63;3.47;;;23.70;85.70;23.80;96501.00;;;;5096698;28;21124;-61
2021/07/04 12:29:03;;;;;;;4.73;3.60;;;23.70;83.10;23.10;96494.00;;;;5099324;28;20203;-62
2021/07/04 12:32:04;;;;;;;4.40;4.00;;;23.70;82.20;22.60;96477.00;;;;5099906;28;20245;-61
2021/07/04 12:34:53;;;;;;;5.43;4.63;;;23.50;81.50;23.00;96476.00;;;;5100254;28;20217;-63
2021/07/04 12:37:43;;;;;;;4.63;4.23;;;23.40;83.90;23.00;96478.00;;;;5096377;28;20191;-61
2021/07/04 12:40:34;;;;;;;7.43;4.20;;;23.30;84.20;23.50;96488.00;;;;5097634;28;20344;-63